Time;durP1;ratioP1;P1;durP2;ratioP2;P2;SDS_P1;SDS_P2;PMS_P1;PMS_P2;Temp;Humidity;BMP_temperature;BMP_pressure;BME280_temperature;BME280_humidity;BME280_pressure;Samples;Min_cycle;Max_cycle;Signal;HPM_P1;HPM_P2
2022/01/29 00:01:09;;;;;;;14.30;6.32;;;;;;;4.39;85.95;101602.63;5093164;28;20490;-74
2022/01/29 00:03:36;;;;;;;;;;;;;;;4.39;85.75;101586.59;5092707;28;20386;-76
2022/01/29 00:06:03;;;;;;;17.90;5.70;;;;;;;4.38;86.02;101584.91;5093401;28;20315;-74
2022/01/29 00:08:29;;;;;;;16.73;5.95;;;;;;;4.40;85.55;101582.09;5093581;28;20070;-75
2022/01/29 00:11:01;;;;;;;;;;;;;;;4.42;86.41;101582.81;5093592;28;20035;-75
2022/01/29 00:13:26;;;;;;;16.08;5.78;;;;;;;4.39;86.30;101575.09;5093340;28;20281;-74
2022/01/29 00:15:52;;;;;;;14.05;5.93;;;;;;;4.39;86.37;101578.59;5092973;28;20024;-74
2022/01/29 00:18:17;;;;;;;17.00;6.73;;;;;;;4.39;86.02;101569.75;5093123;28;20478;-74
2022/01/29 00:20:42;;;;;;;15.00;5.43;;;;;;;4.39;86.05;101572.41;5093431;28;20454;-74
2022/01/29 00:23:08;;;;;;;13.63;5.60;;;;;;;4.41;86.81;101567.78;5093288;28;20319;-74
2022/01/29 00:25:33;;;;;;;16.40;6.60;;;;;;;4.40;86.66;101563.44;5092865;28;20372;-76
2022/01/29 00:27:59;;;;;;;19.23;5.67;;;;;;;4.39;86.62;101564.41;5093023;28;20047;-74
2022/01/29 00:30:31;;;;;;;;;;;;;;;4.39;86.66;101573.25;5093271;28;20337;-74
2022/01/29 00:32:56;;;;;;;14.98;6.20;;;;;;;4.38;86.48;101560.91;5092875;28;19915;-76
2022/01/29 00:35:21;;;;;;;14.57;5.80;;;;;;;4.35;87.40;101555.81;5093142;28;20036;-75
2022/01/29 00:37:47;;;;;;;16.97;5.83;;;;;;;4.37;87.13;101542.34;5093051;28;20251;-74
2022/01/29 00:40:13;;;;;;;16.63;6.43;;;;;;;4.35;87.25;101553.16;5092953;28;20036;-74
2022/01/29 00:42:38;;;;;;;13.50;6.25;;;;;;;4.38;87.88;101552.03;5093062;28;20254;-75
2022/01/29 00:45:04;;;;;;;18.57;6.63;;;;;;;4.37;87.79;101539.69;5093041;28;20051;-74
2022/01/29 00:47:29;;;;;;;16.05;7.00;;;;;;;4.39;87.82;101540.41;5093088;28;20354;-74
2022/01/29 00:49:54;;;;;;;19.73;8.10;;;;;;;4.39;87.68;101527.06;5092906;28;20115;-74
2022/01/29 00:52:20;;;;;;;20.40;7.53;;;;;;;4.41;87.43;101514.41;5092645;28;20051;-74
2022/01/29 00:54:45;;;;;;;19.13;6.77;;;;;;;4.41;87.36;101514.41;5092796;28;20270;-74
2022/01/29 00:57:11;;;;;;;19.23;8.38;;;;;;;4.39;87.83;101514.56;5092838;28;20032;-74
2022/01/29 00:59:36;;;;;;;17.87;6.80;;;;;;;4.42;88.19;101513.44;5092985;28;20044;-74
2022/01/29 01:02:02;;;;;;;20.33;6.73;;;;;;;4.42;88.06;101511.63;5093016;28;20335;-74
2022/01/29 01:04:28;;;;;;;22.17;7.90;;;;;;;4.43;87.91;101518.63;5093197;28;20028;-74
2022/01/29 01:06:54;;;;;;;19.58;7.07;;;;;;;4.46;88.14;101499.69;5095333;28;20058;-75
2022/01/29 01:09:19;;;;;;;19.77;7.15;;;;;;;4.51;87.69;101486.75;5095241;28;20040;-76
2022/01/29 01:11:44;;;;;;;18.67;7.83;;;;;;;4.51;87.74;101484.06;5095388;28;20078;-75
2022/01/29 01:14:10;;;;;;;22.63;7.33;;;;;;;4.52;87.84;101493.78;5096541;28;20308;-74
2022/01/29 01:16:35;;;;;;;25.70;8.77;;;;;;;4.53;88.01;101490.13;5096825;28;20037;-74
2022/01/29 01:19:01;;;;;;;20.57;8.67;;;;;;;4.54;88.13;101507.81;5096456;28;20266;-74
2022/01/29 01:21:26;;;;;;;20.85;7.45;;;;;;;4.55;88.88;101500.66;5096552;28;20039;-75
2022/01/29 01:23:51;;;;;;;21.92;7.00;;;;;;;4.52;88.90;101504.44;5096391;28;20115;-76
2022/01/29 01:26:18;;;;;;;23.73;7.80;;;;;;;4.49;89.24;101494.03;5095969;28;20127;-74
2022/01/29 01:28:43;;;;;;;21.38;8.63;;;;;;;4.46;89.32;101470.34;5096271;28;20093;-75
2022/01/29 01:31:09;;;;;;;22.42;7.05;;;;;;;4.46;89.43;101465.00;5096587;28;20028;-76
2022/01/29 01:33:34;;;;;;;21.52;7.60;;;;;;;4.41;89.67;101459.22;5096235;28;20414;-75
2022/01/29 01:36:03;;;;;;;23.25;8.20;;;;;;;4.40;90.11;101459.34;5095899;28;20113;-74
2022/01/29 01:38:39;;;;;;;30.92;8.00;;;;;;;4.41;90.00;101456.56;5094692;28;20032;-74
2022/01/29 01:41:08;;;;;;;25.73;9.27;;;;;;;4.46;90.44;101450.81;5096031;28;20032;-75
2022/01/29 01:43:34;;;;;;;26.55;9.45;;;;;;;4.45;90.29;101452.63;5096024;28;20058;-75
2022/01/29 01:45:59;;;;;;;23.90;8.23;;;;;;;4.47;90.16;101445.34;5095706;28;20060;-75
2022/01/29 01:48:24;;;;;;;21.07;8.43;;;;;;;4.50;90.02;101437.03;5096052;28;20262;-75
2022/01/29 01:50:50;;;;;;;22.35;8.20;;;;;;;4.51;89.39;101422.69;5095713;28;20258;-76
2022/01/29 01:53:15;;;;;;;19.02;6.95;;;;;;;4.52;89.54;101432.38;5095910;28;20116;-76
2022/01/29 01:55:41;;;;;;;24.25;8.18;;;;;;;4.56;89.38;101419.59;5095794;28;20409;-75
2022/01/29 01:58:07;;;;;;;21.67;8.10;;;;;;;4.56;89.86;101411.59;5095424;28;20052;-74
2022/01/29 02:00:33;;;;;;;21.48;8.93;;;;;;;4.56;89.84;101400.91;5095696;28;20043;-74
2022/01/29 02:02:58;;;;;;;;;;;;;;;4.55;89.45;101407.25;5094781;28;20027;-74
2022/01/29 02:05:24;;;;;;;22.48;7.90;;;;;;;4.53;90.01;101414.53;5095675;28;19915;-75
2022/01/29 02:07:49;;;;;;;23.73;8.20;;;;;;;4.54;89.64;101405.56;5095622;28;21058;-74
2022/01/29 02:10:16;;;;;;;22.13;8.55;;;;;;;4.52;89.71;101420.88;5095424;28;20118;-75
2022/01/29 02:12:49;;;;;;;26.70;9.35;;;;;;;4.53;90.42;101415.38;5095169;28;20079;-74
2022/01/29 02:15:15;;;;;;;24.70;7.70;;;;;;;4.54;90.24;101414.41;5095359;28;20073;-75
2022/01/29 02:17:41;;;;;;;23.08;8.60;;;;;;;4.57;89.99;101401.75;5094717;28;20035;-76
2022/01/29 02:20:07;;;;;;;30.55;8.35;;;;;;;4.57;89.36;101394.59;5095267;28;20036;-76
2022/01/29 02:22:32;;;;;;;25.13;9.50;;;;;;;4.60;89.21;101398.81;5093890;28;20036;-75
2022/01/29 02:24:58;;;;;;;20.83;7.82;;;;;;;4.61;89.70;101390.66;5095519;28;20032;-75
2022/01/29 02:27:23;;;;;;;29.25;10.80;;;;;;;4.59;89.63;101387.28;5094944;28;20028;-74
2022/01/29 02:29:49;;;;;;;21.03;7.23;;;;;;;4.61;89.46;101387.16;5095649;28;20054;-75
2022/01/29 02:32:15;;;;;;;;;;;;;;;4.61;89.58;101387.16;5095706;28;20242;-75
2022/01/29 02:34:43;;;;;;;20.90;7.38;;;;;;;4.61;89.70;101379.16;5095007;28;20010;-74
2022/01/29 02:37:08;;;;;;;19.13;7.05;;;;;;;4.59;89.32;101365.94;5094989;28;20020;-75
2022/01/29 02:39:34;;;;;;;32.58;10.98;;;;;;;4.53;89.93;101356.66;5094905;28;20071;-75
2022/01/29 02:41:59;;;;;;;22.20;8.00;;;;;;;4.48;90.67;101355.41;5094840;28;20076;-75
2022/01/29 02:44:25;;;;;;;27.80;9.52;;;;;;;4.43;90.96;101355.00;5093614;28;20071;-76
2022/01/29 02:46:53;;;;;;;20.13;8.77;;;;;;;4.37;91.77;101339.56;5094879;28;20119;-75
2022/01/29 02:49:23;;;;;;;26.50;9.02;;;;;;;4.36;91.60;101343.22;5094840;28;20355;-75
2022/01/29 02:51:52;;;;;;;21.08;7.90;;;;;;;4.36;92.01;101340.53;5094705;28;20092;-75
2022/01/29 02:54:17;;;;;;;21.45;7.95;;;;;;;4.37;91.61;101342.22;5094542;28;20486;-75
2022/01/29 02:56:43;;;;;;;23.98;7.65;;;;;;;4.36;91.99;101335.22;5096113;28;20035;-75
2022/01/29 02:59:09;;;;;;;17.40;8.02;;;;;;;4.35;91.82;101331.69;5094714;28;20047;-75
2022/01/29 03:01:34;;;;;;;20.23;9.68;;;;;;;4.36;91.87;101325.38;5094268;28;20043;-74
2022/01/29 03:04:00;;;;;;;25.27;9.13;;;;;;;4.39;91.53;101322.44;5094353;28;20077;-74
2022/01/29 03:06:25;;;;;;;22.52;8.27;;;;;;;4.41;92.10;101325.81;5094298;28;20032;-74
2022/01/29 03:08:52;;;;;;;25.77;9.43;;;;;;;4.45;92.08;101321.03;5094287;28;20036;-74
2022/01/29 03:11:19;;;;;;;26.38;8.77;;;;;;;4.47;91.45;101319.06;5094037;28;20402;-75
2022/01/29 03:13:46;;;;;;;22.55;7.68;;;;;;;4.49;91.34;101333.06;5094286;28;20052;-76
2022/01/29 03:16:11;;;;;;;28.40;9.57;;;;;;;4.48;91.58;101332.22;5093950;28;20085;-74
2022/01/29 03:18:37;;;;;;;22.60;9.68;;;;;;;4.49;92.00;101323.25;5093934;28;20032;-74
2022/01/29 03:21:02;;;;;;;19.87;7.77;;;;;;;4.50;92.22;101327.59;5094434;28;20035;-75
2022/01/29 03:23:27;;;;;;;28.00;8.70;;;;;;;4.52;91.88;101317.63;5092816;28;20267;-75
2022/01/29 03:25:53;;;;;;;23.77;8.83;;;;;;;4.53;92.17;101313.13;5093784;28;20317;-76
2022/01/29 03:28:18;;;;;;;27.02;8.10;;;;;;;4.53;91.78;101313.97;5093083;28;20262;-75
2022/01/29 03:30:44;;;;;;;26.60;9.90;;;;;;;4.56;91.85;101312.00;5093728;28;20060;-74
2022/01/29 03:33:10;;;;;;;19.42;6.82;;;;;;;4.54;92.07;101309.47;5094034;28;20246;-75
2022/01/29 03:35:35;;;;;;;21.13;7.38;;;;;;;4.51;92.83;101307.09;5093991;28;20077;-75
2022/01/29 03:38:01;;;;;;;27.25;9.13;;;;;;;4.49;92.87;101296.56;5094240;28;20381;-74
2022/01/29 03:40:27;;;;;;;22.50;7.40;;;;;;;4.48;93.07;101300.19;5093795;28;20106;-75
2022/01/29 03:43:13;;;;;;;20.50;8.20;;;;;;;4.45;92.79;101297.84;5093757;28;20038;-74
2022/01/29 03:45:39;;;;;;;20.95;7.95;;;;;;;4.47;93.05;101305.72;5093775;28;20036;-75
2022/01/29 03:48:08;;;;;;;23.05;8.75;;;;;;;4.48;93.44;101297.53;5093472;28;20133;-75
2022/01/29 03:50:34;;;;;;;25.88;8.15;;;;;;;4.50;93.41;101287.56;5093780;28;20032;-75
2022/01/29 03:52:59;;;;;;;;;;;;;;;4.55;93.17;101279.13;5094029;28;20111;-75
2022/01/29 03:55:25;;;;;;;22.50;8.13;;;;;;;4.56;92.85;101285.31;5093504;28;20003;-74
2022/01/29 03:57:50;;;;;;;27.45;8.70;;;;;;;4.59;92.68;101285.03;5093485;28;20126;-75
2022/01/29 04:00:16;;;;;;;21.30;8.55;;;;;;;4.59;92.28;101290.38;5093530;28;20024;-75
2022/01/29 04:02:41;;;;;;;25.30;9.70;;;;;;;4.65;92.38;101279.13;5093862;28;20497;-76
2022/01/29 04:05:07;;;;;;;23.83;7.72;;;;;;;4.64;92.09;101277.44;5092232;28;20515;-75
2022/01/29 04:07:33;;;;;;;19.65;8.05;;;;;;;4.59;93.14;101274.34;5092110;28;20040;-76
2022/01/29 04:09:59;;;;;;;21.25;7.95;;;;;;;4.53;93.11;101267.75;5093556;28;20031;-76
2022/01/29 04:12:27;;;;;;;20.30;7.75;;;;;;;4.50;93.76;101268.88;5093365;28;20032;-74
2022/01/29 04:14:54;;;;;;;19.33;8.02;;;;;;;4.48;93.63;101270.00;5093351;28;20413;-75
2022/01/29 04:17:19;;;;;;;22.65;8.18;;;;;;;4.49;94.15;101264.53;5093684;28;20097;-76
2022/01/29 04:19:45;;;;;;;26.20;9.83;;;;;;;4.45;93.83;101263.16;5093372;28;20036;-75
2022/01/29 04:22:10;;;;;;;23.03;8.50;;;;;;;4.45;94.08;101255.16;5093282;28;20036;-76
2022/01/29 04:24:35;;;;;;;19.17;7.47;;;;;;;4.46;94.56;101256.84;5093057;28;20720;-76
2022/01/29 04:27:03;;;;;;;16.52;7.15;;;;;;;4.45;94.55;101254.31;5092879;28;20530;-75
2022/01/29 04:29:38;;;;;;;20.85;7.18;;;;;;;4.50;94.83;101260.88;5093168;28;20040;-75
2022/01/29 04:32:18;;;;;;;21.65;7.60;;;;;;;4.48;94.90;101254.00;5092847;28;20027;-75
2022/01/29 04:34:44;;;;;;;24.55;7.85;;;;;;;4.47;94.75;101263.03;5093202;28;20205;-76
2022/01/29 04:37:09;;;;;;;16.80;7.27;;;;;;;4.45;95.65;101270.31;5093130;28;20128;-75
2022/01/29 04:39:34;;;;;;;21.20;7.13;;;;;;;4.45;95.36;101260.50;5093733;28;20437;-76
2022/01/29 04:42:00;;;;;;;22.95;8.00;;;;;;;4.49;95.58;101258.34;5095996;28;20684;-75
2022/01/29 04:44:25;;;;;;;19.17;6.67;;;;;;;4.46;95.01;101251.50;5097197;28;20039;-75
2022/01/29 04:46:50;;;;;;;18.70;7.40;;;;;;;4.47;95.30;101255.00;5095758;28;20636;-76
2022/01/29 04:49:16;;;;;;;18.53;7.13;;;;;;;4.52;95.64;101253.56;5097089;28;20020;-75
2022/01/29 04:51:41;;;;;;;24.13;7.93;;;;;;;4.52;95.76;101250.06;5096993;28;20724;-75
2022/01/29 04:54:06;;;;;;;20.20;7.23;;;;;;;4.53;95.33;101254.41;5097091;28;20520;-75
2022/01/29 04:56:34;;;;;;;21.15;8.60;;;;;;;4.52;95.20;101237.56;5097061;28;20035;-76
2022/01/29 04:58:59;;;;;;;20.95;7.50;;;;;;;4.54;95.25;101232.91;5095594;28;20087;-75
2022/01/29 05:01:24;;;;;;;21.23;6.47;;;;;;;4.53;96.00;101228.56;5096707;28;20059;-75
2022/01/29 05:03:50;;;;;;;19.70;6.27;;;;;;;4.56;95.77;101229.25;5096500;28;20708;-76
2022/01/29 05:06:15;;;;;;;16.33;6.95;;;;;;;4.54;95.42;101222.25;5096811;28;20098;-75
2022/01/29 05:08:40;;;;;;;15.03;6.00;;;;;;;4.57;95.54;101226.44;5095489;28;20114;-76
2022/01/29 05:11:08;;;;;;;22.02;6.53;;;;;;;4.56;95.70;101226.59;5096727;28;20082;-75
2022/01/29 05:13:36;;;;;;;17.85;7.28;;;;;;;4.61;96.17;101235.00;5096666;28;20158;-76
2022/01/29 05:26:54;;;;;;;18.80;5.28;;;;;;;4.66;96.03;101206.88;5096013;28;20036;-73
2022/01/29 05:29:20;;;;;;;18.60;6.22;;;;;;;4.68;95.81;101201.38;5096326;28;20034;-77
2022/01/29 05:31:45;;;;;;;17.52;7.68;;;;;;;4.70;96.38;101194.91;5095967;28;20394;-74
2022/01/29 05:34:11;;;;;;;21.02;6.15;;;;;;;4.72;96.29;101194.78;5095958;28;20028;-74
2022/01/29 05:36:36;;;;;;;19.20;6.70;;;;;;;4.71;96.33;101187.75;5096018;28;20110;-74
2022/01/29 05:39:04;;;;;;;17.95;6.55;;;;;;;4.74;95.74;101177.63;5095830;28;20480;-75
2022/01/29 05:41:30;;;;;;;16.98;6.10;;;;;;;4.75;96.16;101170.44;5095760;28;20035;-74
2022/01/29 05:43:55;;;;;;;;;;;;;;;4.75;95.93;101176.63;5095044;28;20042;-73
2022/01/29 05:46:21;;;;;;;18.80;5.80;;;;;;;4.79;96.09;101169.16;5095899;28;19912;-74
2022/01/29 05:48:46;;;;;;;15.32;6.00;;;;;;;4.78;95.80;101176.34;5095646;28;20428;-75
2022/01/29 05:51:13;;;;;;;18.25;6.05;;;;;;;4.79;95.72;101171.84;5094348;28;20104;-74
2022/01/29 05:53:38;;;;;;;16.00;5.65;;;;;;;4.83;95.79;101183.91;5095730;28;20031;-74
2022/01/29 05:56:04;;;;;;;15.60;6.60;;;;;;;4.83;96.16;101170.56;5095553;28;20032;-73
2022/01/29 05:58:29;;;;;;;18.45;6.25;;;;;;;4.84;96.13;101180.22;5095691;28;20059;-74
2022/01/29 06:00:55;;;;;;;23.50;6.87;;;;;;;4.84;95.62;101173.06;5095440;28;20486;-74
2022/01/29 06:03:22;;;;;;;17.55;5.75;;;;;;;4.86;96.36;101173.75;5095670;28;20262;-74
2022/01/29 06:05:47;;;;;;;20.02;5.97;;;;;;;4.88;96.00;101173.59;5095305;28;20043;-74
2022/01/29 06:08:13;;;;;;;14.50;6.40;;;;;;;4.89;96.36;101169.94;5095176;28;20371;-74
2022/01/29 06:10:38;;;;;;;17.90;6.30;;;;;;;4.91;95.85;101172.47;5095523;28;20463;-74
2022/01/29 06:13:06;;;;;;;18.77;6.90;;;;;;;4.91;96.20;101173.31;5095533;28;20347;-74
2022/01/29 06:15:34;;;;;;;20.20;6.65;;;;;;;4.93;96.28;101176.66;5095116;28;20345;-73
2022/01/29 06:18:00;;;;;;;17.90;5.85;;;;;;;4.94;95.85;101167.66;5095307;28;20085;-73
2022/01/29 06:20:25;;;;;;;17.63;6.63;;;;;;;4.96;95.72;101171.03;5095137;28;20027;-74
2022/01/29 06:22:51;;;;;;;18.58;6.05;;;;;;;4.96;95.62;101160.34;5095331;28;20287;-75
2022/01/29 06:25:17;;;;;;;18.35;7.32;;;;;;;4.96;96.26;101149.66;5094042;28;20028;-75
2022/01/29 06:27:42;;;;;;;13.68;5.78;;;;;;;4.97;95.53;101158.53;5094998;28;20035;-76
2022/01/29 06:30:08;;;;;;;15.30;5.93;;;;;;;4.97;96.26;101159.38;5094815;28;20055;-77
2022/01/29 06:32:33;;;;;;;17.30;6.00;;;;;;;4.99;95.99;101148.53;5095097;28;20028;-76
2022/01/29 06:34:58;;;;;;;19.30;6.47;;;;;;;5.00;95.82;101155.56;5094791;28;20036;-76
2022/01/29 06:37:24;;;;;;;19.23;6.20;;;;;;;5.01;96.25;101151.91;5094769;28;20129;-77
2022/01/29 06:39:49;;;;;;;18.40;6.15;;;;;;;5.04;96.36;101148.91;5094614;28;20119;-77
2022/01/29 06:42:15;;;;;;;16.17;6.00;;;;;;;5.04;96.19;101155.06;5095104;28;20036;-76
2022/01/29 06:44:40;;;;;;;21.33;5.67;;;;;;;5.05;95.69;101151.41;5095044;28;20431;-76
2022/01/29 06:47:05;;;;;;;17.27;6.73;;;;;;;5.06;95.98;101152.25;5094769;28;20282;-77
2022/01/29 06:49:31;;;;;;;20.73;6.70;;;;;;;5.09;96.38;101150.13;5094731;28;20796;-76
2022/01/29 06:51:56;;;;;;;20.13;7.00;;;;;;;5.09;96.18;101147.47;5095095;28;20035;-77
2022/01/29 06:54:22;;;;;;;16.63;6.40;;;;;;;5.12;96.41;101141.81;5095235;28;20080;-77
2022/01/29 06:56:47;;;;;;;19.30;6.38;;;;;;;5.14;96.34;101149.69;5094557;28;20036;-77
2022/01/29 06:59:13;;;;;;;19.33;5.70;;;;;;;5.14;96.29;101147.00;5094753;28;20044;-76
2022/01/29 07:01:38;;;;;;;21.10;6.70;;;;;;;5.19;96.66;101144.72;5094521;28;20028;-76
2022/01/29 07:04:04;;;;;;;16.30;6.78;;;;;;;5.19;96.21;101139.38;5093980;28;20028;-76
2022/01/29 07:06:29;;;;;;;15.57;6.68;;;;;;;5.21;95.90;101140.88;5094411;28;20117;-77
2022/01/29 07:08:56;;;;;;;17.05;6.38;;;;;;;5.22;95.99;101131.88;5094276;28;20066;-76
2022/01/29 07:11:23;;;;;;;15.75;6.93;;;;;;;5.25;96.55;101125.41;5093096;28;20028;-76
2022/01/29 07:13:51;;;;;;;19.90;6.18;;;;;;;5.27;96.26;101126.09;5094338;28;20109;-76
2022/01/29 07:16:16;;;;;;;17.38;5.68;;;;;;;5.28;95.99;101132.28;5094106;28;20047;-76
2022/01/29 07:18:42;;;;;;;19.97;7.57;;;;;;;5.30;96.32;101139.16;5095137;28;20032;-77
2022/01/29 07:21:07;;;;;;;15.77;5.83;;;;;;;5.31;96.28;101132.81;5094663;28;20262;-77
2022/01/29 07:23:33;;;;;;;20.58;7.28;;;;;;;5.36;96.03;101140.38;5094942;28;20115;-77
2022/01/29 07:25:58;;;;;;;20.23;7.45;;;;;;;5.42;95.91;101129.06;5094643;28;20444;-76
2022/01/29 07:28:24;;;;;;;19.07;7.23;;;;;;;5.43;96.06;101130.72;5094515;28;20039;-76
2022/01/29 07:30:49;;;;;;;19.10;8.27;;;;;;;5.43;96.52;101115.53;5093247;28;20032;-76
2022/01/29 07:33:14;;;;;;;16.67;5.47;;;;;;;5.46;96.32;101123.25;5093524;28;20036;-76
2022/01/29 07:35:40;;;;;;;21.37;7.43;;;;;;;5.51;96.04;101126.31;5093931;28;20254;-76
2022/01/29 07:38:05;;;;;;;22.13;7.50;;;;;;;5.51;96.29;101122.78;5093867;28;20708;-76
2022/01/29 07:40:30;;;;;;;22.83;6.88;;;;;;;5.53;96.67;101126.16;5093574;28;20038;-75
2022/01/29 07:42:56;;;;;;;19.27;7.35;;;;;;;5.55;95.98;101124.97;5093531;28;20089;-75
2022/01/29 07:45:21;;;;;;;18.90;7.13;;;;;;;5.58;96.37;101127.34;5093983;28;20056;-76
2022/01/29 07:47:46;;;;;;;22.08;7.15;;;;;;;5.67;96.69;101122.91;5093556;28;20288;-76
2022/01/29 07:50:12;;;;;;;23.30;6.70;;;;;;;5.66;95.83;101115.88;5092306;28;20055;-76
2022/01/29 07:52:37;;;;;;;23.10;7.37;;;;;;;5.68;96.14;101113.91;5093503;28;20050;-76
2022/01/29 07:55:04;;;;;;;25.20;8.30;;;;;;;5.70;95.89;101098.53;5092375;28;20335;-76
2022/01/29 07:57:30;;;;;;;19.77;7.53;;;;;;;5.74;96.31;101101.72;5091824;28;20081;-75
2022/01/29 07:59:55;;;;;;;20.97;6.73;;;;;;;5.77;96.32;101093.38;5093075;28;20040;-75
2022/01/29 08:02:21;;;;;;;19.70;6.93;;;;;;;5.79;96.25;101096.75;5093067;28;20323;-76
2022/01/29 08:04:46;;;;;;;19.27;6.97;;;;;;;5.79;96.09;101094.91;5093208;28;20047;-75
2022/01/29 08:07:11;;;;;;;19.40;6.63;;;;;;;5.82;96.37;101083.91;5092947;28;20293;-76
2022/01/29 08:09:36;;;;;;;22.50;7.13;;;;;;;5.83;96.38;101100.78;5093557;28;20032;-75
2022/01/29 08:12:02;;;;;;;20.17;7.17;;;;;;;5.87;96.05;101104.84;5093106;28;20363;-76
2022/01/29 08:14:27;;;;;;;24.50;7.63;;;;;;;5.93;95.67;101088.16;5092585;28;20024;-76
2022/01/29 08:16:53;;;;;;;17.73;6.53;;;;;;;5.98;96.02;101077.00;5093332;28;20034;-76
2022/01/29 08:19:18;;;;;;;18.90;7.55;;;;;;;5.99;95.91;101084.88;5093864;28;20031;-75
2022/01/29 08:21:43;;;;;;;18.35;6.85;;;;;;;6.01;95.90;101071.34;5093148;28;20034;-76
2022/01/29 08:24:09;;;;;;;20.30;6.37;;;;;;;6.02;96.25;101086.38;5093061;28;20043;-75
2022/01/29 08:26:34;;;;;;;19.60;6.77;;;;;;;6.04;95.64;101073.69;5093344;28;20143;-76
2022/01/29 08:29:00;;;;;;;19.45;6.65;;;;;;;6.05;95.79;101078.06;5093475;28;20269;-75
2022/01/29 08:31:25;;;;;;;20.33;7.03;;;;;;;6.07;95.29;101071.53;5092110;28;20538;-77
2022/01/29 08:33:50;;;;;;;20.40;7.15;;;;;;;6.11;95.35;101072.03;5093253;28;20027;-76
2022/01/29 08:36:16;;;;;;;19.00;7.03;;;;;;;6.14;95.18;101077.91;5091817;28;20043;-76
2022/01/29 08:38:41;;;;;;;17.60;7.03;;;;;;;6.19;95.18;101075.59;5091901;28;20356;-76
2022/01/29 08:41:06;;;;;;;18.93;5.80;;;;;;;6.18;95.42;101065.06;5093323;28;20265;-77
2022/01/29 08:43:33;;;;;;;21.27;6.53;;;;;;;6.25;94.86;101068.78;5093450;28;20031;-75
2022/01/29 08:45:58;;;;;;;;;;;;;;;6.20;95.12;101069.25;5093596;28;20379;-76
2022/01/29 08:48:24;;;;;;;16.80;6.55;;;;;;;6.17;94.96;101058.03;5094666;28;19912;-75
2022/01/29 08:50:49;;;;;;;18.38;7.55;;;;;;;6.15;95.41;101060.88;5093171;28;20115;-76
2022/01/29 08:53:17;;;;;;;20.17;7.20;;;;;;;6.13;94.94;101054.00;5091721;28;20063;-76
2022/01/29 08:55:46;;;;;;;21.17;6.93;;;;;;;6.15;95.89;101058.19;5092767;28;20040;-75
2022/01/29 08:58:12;;;;;;;16.23;6.07;;;;;;;6.13;95.55;101056.66;5093371;28;20052;-76
2022/01/29 09:00:39;;;;;;;;;;;;;;;6.14;95.43;101044.97;5093054;28;20058;-76
2022/01/29 09:03:05;;;;;;;20.08;7.07;;;;;;;6.13;95.71;101044.13;5091298;28;19908;-75
2022/01/29 09:05:31;;;;;;;18.05;7.95;;;;;;;6.14;96.26;101044.97;5092409;28;20436;-76
2022/01/29 09:07:56;;;;;;;17.70;6.25;;;;;;;6.12;95.49;101039.78;5092610;28;20024;-74
2022/01/29 09:10:22;;;;;;;16.60;7.00;;;;;;;6.13;95.89;101043.28;5092859;28;20028;-74
2022/01/29 09:12:47;;;;;;;22.55;6.57;;;;;;;6.14;95.76;101029.75;5092753;28;20057;-74
2022/01/29 09:15:13;;;;;;;18.23;6.95;;;;;;;6.16;95.80;101038.47;5091473;28;20398;-75
2022/01/29 09:17:39;;;;;;;14.70;5.93;;;;;;;6.16;96.21;101026.91;5092644;28;20031;-75
2022/01/29 09:20:07;;;;;;;17.00;6.63;;;;;;;6.16;95.97;101026.91;5091315;28;20028;-76
2022/01/29 09:22:33;;;;;;;16.38;6.05;;;;;;;6.19;95.90;101022.09;5092742;28;20131;-75
2022/01/29 09:24:58;;;;;;;18.13;6.70;;;;;;;6.16;96.15;101017.06;5092395;28;20177;-75
2022/01/29 09:27:24;;;;;;;16.67;7.07;;;;;;;6.21;95.96;101013.91;5094938;28;20266;-74
2022/01/29 09:29:49;;;;;;;15.33;6.33;;;;;;;6.22;95.89;101012.91;5096424;28;20040;-76
2022/01/29 09:32:14;;;;;;;19.93;7.27;;;;;;;6.26;95.94;101016.94;5096736;28;20270;-75
2022/01/29 09:34:40;;;;;;;18.30;6.88;;;;;;;6.28;96.23;101006.88;5096180;28;20039;-76
2022/01/29 09:37:05;;;;;;;15.45;7.05;;;;;;;6.34;96.36;101003.56;5095972;28;20078;-76
2022/01/29 09:39:30;;;;;;;21.58;6.65;;;;;;;6.32;95.56;101012.75;5096749;28;20039;-77
2022/01/29 09:41:56;;;;;;;19.92;6.40;;;;;;;6.35;95.84;101009.75;5096078;28;20470;-74
2022/01/29 09:44:22;;;;;;;20.40;7.15;;;;;;;6.36;96.14;101008.75;5096268;28;20438;-73
2022/01/29 09:46:50;;;;;;;;;;;;;;;6.38;96.19;101006.75;5096418;28;20032;-74
2022/01/29 09:49:15;;;;;;;;;;;;;;;6.37;95.75;100992.53;5096615;28;20255;-75
2022/01/29 09:51:41;;;;;;;15.30;5.72;;;;;;;6.41;95.89;101011.78;5094475;28;19912;-74
2022/01/29 09:54:07;;;;;;;15.32;6.65;;;;;;;6.44;96.26;100998.91;5095902;28;20054;-76
2022/01/29 09:56:33;;;;;;;15.60;5.82;;;;;;;6.48;96.08;100999.41;5094096;28;20119;-74
2022/01/29 09:58:58;;;;;;;23.13;7.53;;;;;;;6.49;95.82;101012.63;5095412;28;20095;-73
2022/01/29 10:01:24;;;;;;;19.50;6.35;;;;;;;6.51;95.93;101007.94;5096018;28;20043;-76
2022/01/29 10:04:06;;;;;;;16.92;6.65;;;;;;;6.57;95.87;101004.63;5094320;28;20279;-74
2022/01/29 10:06:32;;;;;;;21.13;7.18;;;;;;;6.59;95.90;101007.97;5095591;28;20028;-74
2022/01/29 10:09:06;;;;;;;;;;;;;;;6.61;95.76;101007.81;5094827;28;20032;-74
2022/01/29 10:11:32;;;;;;;21.38;6.70;;;;;;;6.65;95.68;101008.31;5094351;28;20338;-74
2022/01/29 10:14:03;;;;;;;14.95;6.38;;;;;;;6.69;95.08;101006.97;5095579;28;20031;-74
2022/01/29 10:16:30;;;;;;;15.50;5.88;;;;;;;6.70;95.06;101003.31;5077684;28;20050;-74
2022/01/29 10:19:00;;;;;;;16.23;5.90;;;;;;;6.70;95.47;101019.38;5094705;28;20036;-74
2022/01/29 10:21:29;;;;;;;16.13;6.35;;;;;;;6.70;95.38;101011.34;5094998;28;20081;-75
2022/01/29 10:24:07;;;;;;;21.52;6.18;;;;;;;6.73;95.55;101001.13;5094004;28;20067;-74
2022/01/29 10:26:41;;;;;;;15.43;6.32;;;;;;;6.77;94.71;100998.97;5093878;28;20123;-74
2022/01/29 10:29:09;;;;;;;16.48;5.95;;;;;;;6.80;95.09;100999.47;5094807;28;20103;-74
2022/01/29 10:31:39;;;;;;;17.52;6.65;;;;;;;6.85;94.62;100980.19;5094804;28;20028;-75
2022/01/29 10:34:34;;;;;;;19.48;6.85;;;;;;;6.85;94.52;100969.50;5094739;28;20032;-75
2022/01/29 10:37:23;;;;;;;15.48;5.47;;;;;;;6.88;94.29;100974.53;5094583;28;20427;-75
2022/01/29 10:39:55;;;;;;;13.15;6.28;;;;;;;6.89;94.72;100965.47;5094784;28;20024;-75
2022/01/29 10:42:24;;;;;;;16.45;5.88;;;;;;;6.89;94.62;100960.97;5093541;28;20024;-75
2022/01/29 10:45:02;;;;;;;15.30;6.82;;;;;;;6.90;94.53;100961.78;5094577;28;20084;-76
2022/01/29 10:47:51;;;;;;;17.75;7.22;;;;;;;6.91;95.08;100964.31;5094837;28;20030;-76
2022/01/29 10:50:17;;;;;;;18.23;6.28;;;;;;;6.90;95.24;100959.13;5094562;28;20085;-75
2022/01/29 10:52:42;;;;;;;18.42;5.85;;;;;;;6.92;95.28;100962.47;5094713;28;20028;-75
2022/01/29 10:55:09;;;;;;;17.03;6.10;;;;;;;6.91;95.03;100953.59;5094897;28;20035;-74
2022/01/29 10:57:37;;;;;;;16.65;6.20;;;;;;;6.93;95.28;100940.03;5094459;28;20262;-75
2022/01/29 11:00:30;;;;;;;14.98;5.50;;;;;;;6.94;94.97;100941.72;5094257;28;20109;-74
2022/01/29 11:02:57;;;;;;;14.13;6.13;;;;;;;6.96;95.18;100939.69;5094937;28;20032;-75
2022/01/29 11:05:30;;;;;;;23.52;6.75;;;;;;;6.99;95.60;100942.00;5094508;28;20028;-74
2022/01/29 11:08:00;;;;;;;14.68;4.70;;;;;;;7.02;95.42;100925.59;5094498;28;20032;-75
2022/01/29 11:10:26;;;;;;;12.88;4.80;;;;;;;7.06;95.57;100918.06;5094248;28;20034;-76
2022/01/29 11:12:52;;;;;;;13.38;4.68;;;;;;;7.08;95.49;100916.06;5095037;28;20486;-76
2022/01/29 11:15:19;;;;;;;13.20;5.10;;;;;;;7.10;95.38;100909.53;5094245;28;20083;-75
2022/01/29 11:17:48;;;;;;;11.45;4.82;;;;;;;7.12;95.66;100899.47;5094207;28;20031;-74
2022/01/29 11:20:14;;;;;;;13.20;4.32;;;;;;;7.14;95.28;100900.16;5092895;28;20173;-75
2022/01/29 11:22:43;;;;;;;11.05;4.40;;;;;;;7.14;95.58;100892.13;5094336;28;20050;-75
2022/01/29 11:25:17;;;;;;;12.20;4.13;;;;;;;7.16;96.00;100891.94;5093831;28;20099;-75
2022/01/29 11:27:42;;;;;;;12.40;4.30;;;;;;;7.15;95.72;100892.94;5094098;28;20125;-76
2022/01/29 11:30:08;;;;;;;13.45;4.88;;;;;;;7.14;96.22;100884.06;5092885;28;20498;-75
2022/01/29 11:32:38;;;;;;;10.60;3.50;;;;;;;7.16;95.93;100876.69;5094115;28;20168;-76
2022/01/29 11:35:07;;;;;;;10.43;3.72;;;;;;;7.15;96.36;100880.38;5093803;28;20121;-76
2022/01/29 11:37:52;;;;;;;11.48;4.60;;;;;;;7.20;96.06;100879.84;5092884;28;20028;-77